sensor_id;sensor_type;location;lat;lon;timestamp;temperature;humidity
38237;DHT22;50101;49.438;11.098;2023-03-31T00:02:04;19.40;55.10
38237;DHT22;50101;49.438;11.098;2023-03-31T00:04:40;19.40;55.10
38237;DHT22;50101;49.438;11.098;2023-03-31T00:07:13;20.10;55.70
38237;DHT22;50101;49.438;11.098;2023-03-31T00:09:39;19.40;55.10
38237;DHT22;50101;49.438;11.098;2023-03-31T00:12:16;19.30;55.10
38237;DHT22;50101;49.438;11.098;2023-03-31T00:14:43;19.30;55.10
38237;DHT22;50101;49.438;11.098;2023-03-31T00:17:09;19.40;55.10
38237;DHT22;50101;49.438;11.098;2023-03-31T00:19:37;19.30;55.00
38237;DHT22;50101;49.438;11.098;2023-03-31T00:22:05;19.30;55.00
38237;DHT22;50101;49.438;11.098;2023-03-31T00:24:33;19.30;55.00
38237;DHT22;50101;49.438;11.098;2023-03-31T00:27:03;19.30;55.00
38237;DHT22;50101;49.438;11.098;2023-03-31T00:29:31;19.30;55.60
38237;DHT22;50101;49.438;11.098;2023-03-31T00:31:59;19.30;54.90
38237;DHT22;50101;49.438;11.098;2023-03-31T00:34:26;19.30;54.90
38237;DHT22;50101;49.438;11.098;2023-03-31T00:36:53;19.30;54.90
38237;DHT22;50101;49.438;11.098;2023-03-31T00:39:22;19.30;54.80
38237;DHT22;50101;49.438;11.098;2023-03-31T00:41:50;19.30;55.00
38237;DHT22;50101;49.438;11.098;2023-03-31T00:44:20;19.30;55.10
38237;DHT22;50101;49.438;11.098;2023-03-31T00:49:28;19.30;55.40
38237;DHT22;50101;49.438;11.098;2023-03-31T00:52:19;19.30;54.80
38237;DHT22;50101;49.438;11.098;2023-03-31T00:54:52;19.20;54.70
38237;DHT22;50101;49.438;11.098;2023-03-31T00:57:21;19.30;54.80
38237;DHT22;50101;49.438;11.098;2023-03-31T00:59:52;19.30;54.80
38237;DHT22;50101;49.438;11.098;2023-03-31T01:02:23;19.30;54.80
38237;DHT22;50101;49.438;11.098;2023-03-31T01:04:58;19.30;54.80
38237;DHT22;50101;49.438;11.098;2023-03-31T01:07:36;19.30;54.90
38237;DHT22;50101;49.438;11.098;2023-03-31T01:10:05;19.30;54.80
38237;DHT22;50101;49.438;11.098;2023-03-31T01:12:33;19.30;54.80
38237;DHT22;50101;49.438;11.098;2023-03-31T01:15:03;19.30;54.30
38237;DHT22;50101;49.438;11.098;2023-03-31T01:17:30;19.30;54.80
38237;DHT22;50101;49.438;11.098;2023-03-31T01:30:44;19.30;54.80
38237;DHT22;50101;49.438;11.098;2023-03-31T01:36:42;19.30;54.30
38237;DHT22;50101;49.438;11.098;2023-03-31T01:39:28;19.20;54.70
38237;DHT22;50101;49.438;11.098;2023-03-31T01:42:02;19.30;54.80
38237;DHT22;50101;49.438;11.098;2023-03-31T01:44:44;19.30;54.80
38237;DHT22;50101;49.438;11.098;2023-03-31T01:47:34;19.30;54.80
38237;DHT22;50101;49.438;11.098;2023-03-31T01:50:22;19.30;54.80
38237;DHT22;50101;49.438;11.098;2023-03-31T01:55:36;19.20;54.20
38237;DHT22;50101;49.438;11.098;2023-03-31T01:58:26;19.20;54.70
38237;DHT22;50101;49.438;11.098;2023-03-31T02:00:59;19.30;54.80
38237;DHT22;50101;49.438;11.098;2023-03-31T02:03:33;19.20;54.70
38237;DHT22;50101;49.438;11.098;2023-03-31T02:06:09;19.20;54.70
38237;DHT22;50101;49.438;11.098;2023-03-31T02:08:42;19.20;54.70
38237;DHT22;50101;49.438;11.098;2023-03-31T02:11:11;19.20;54.70
38237;DHT22;50101;49.438;11.098;2023-03-31T02:13:40;19.20;54.70
38237;DHT22;50101;49.438;11.098;2023-03-31T02:16:13;19.20;54.20
38237;DHT22;50101;49.438;11.098;2023-03-31T02:18:46;19.20;54.70
38237;DHT22;50101;49.438;11.098;2023-03-31T02:21:14;19.20;54.70
38237;DHT22;50101;49.438;11.098;2023-03-31T02:23:43;19.20;54.70
38237;DHT22;50101;49.438;11.098;2023-03-31T02:26:18;19.20;54.60
38237;DHT22;50101;49.438;11.098;2023-03-31T02:28:46;19.20;54.00
38237;DHT22;50101;49.438;11.098;2023-03-31T02:31:32;19.20;54.50
38237;DHT22;50101;49.438;11.098;2023-03-31T02:34:04;19.30;54.70
38237;DHT22;50101;49.438;11.098;2023-03-31T02:36:32;19.20;54.60
38237;DHT22;50101;49.438;11.098;2023-03-31T02:39:08;19.20;54.70
38237;DHT22;50101;49.438;11.098;2023-03-31T02:41:36;19.20;54.60
38237;DHT22;50101;49.438;11.098;2023-03-31T02:44:03;19.20;54.70
38237;DHT22;50101;49.438;11.098;2023-03-31T02:46:30;19.20;54.20
38237;DHT22;50101;49.438;11.098;2023-03-31T02:48:59;19.20;54.70
38237;DHT22;50101;49.438;11.098;2023-03-31T03:05:40;19.20;54.80
38237;DHT22;50101;49.438;11.098;2023-03-31T03:08:33;19.30;54.70
38237;DHT22;50101;49.438;11.098;2023-03-31T03:11:04;19.30;54.60
38237;DHT22;50101;49.438;11.098;2023-03-31T03:13:49;19.30;54.60
38237;DHT22;50101;49.438;11.098;2023-03-31T03:16:39;19.30;54.20
38237;DHT22;50101;49.438;11.098;2023-03-31T03:19:07;19.20;54.60
38237;DHT22;50101;49.438;11.098;2023-03-31T03:21:34;19.20;54.70
38237;DHT22;50101;49.438;11.098;2023-03-31T03:24:01;19.20;54.70
38237;DHT22;50101;49.438;11.098;2023-03-31T03:26:28;19.20;54.60
38237;DHT22;50101;49.438;11.098;2023-03-31T03:28:55;19.30;54.50
38237;DHT22;50101;49.438;11.098;2023-03-31T03:31:22;19.20;54.60
38237;DHT22;50101;49.438;11.098;2023-03-31T03:33:52;19.20;54.60
38237;DHT22;50101;49.438;11.098;2023-03-31T03:36:19;19.20;54.70
38237;DHT22;50101;49.438;11.098;2023-03-31T03:38:46;19.20;55.30
38237;DHT22;50101;49.438;11.098;2023-03-31T03:41:12;19.20;54.60
38237;DHT22;50101;49.438;11.098;2023-03-31T03:43:39;19.30;54.60
38237;DHT22;50101;49.438;11.098;2023-03-31T03:46:06;19.10;55.10
38237;DHT22;50101;49.438;11.098;2023-03-31T03:48:33;19.20;54.60
38237;DHT22;50101;49.438;11.098;2023-03-31T03:51:00;19.20;54.60
38237;DHT22;50101;49.438;11.098;2023-03-31T03:53:27;19.20;54.50
38237;DHT22;50101;49.438;11.098;2023-03-31T03:55:54;19.20;54.70
38237;DHT22;50101;49.438;11.098;2023-03-31T03:58:21;19.20;54.50
38237;DHT22;50101;49.438;11.098;2023-03-31T04:00:47;19.20;54.40
38237;DHT22;50101;49.438;11.098;2023-03-31T04:03:14;19.20;54.30
38237;DHT22;50101;49.438;11.098;2023-03-31T04:05:42;19.30;54.30
38237;DHT22;50101;49.438;11.098;2023-03-31T04:08:08;19.20;54.20
38237;DHT22;50101;49.438;11.098;2023-03-31T04:10:36;19.20;54.20
38237;DHT22;50101;49.438;11.098;2023-03-31T04:13:03;19.30;54.20
38237;DHT22;50101;49.438;11.098;2023-03-31T04:15:30;19.30;54.20
38237;DHT22;50101;49.438;11.098;2023-03-31T04:17:56;19.20;54.30
38237;DHT22;50101;49.438;11.098;2023-03-31T04:20:23;19.30;54.20
38237;DHT22;50101;49.438;11.098;2023-03-31T04:22:53;19.20;54.30
38237;DHT22;50101;49.438;11.098;2023-03-31T04:25:20;19.20;54.60
38237;DHT22;50101;49.438;11.098;2023-03-31T04:27:50;19.10;54.10
38237;DHT22;50101;49.438;11.098;2023-03-31T04:30:24;19.20;54.70
38237;DHT22;50101;49.438;11.098;2023-03-31T04:32:59;19.20;54.50
38237;DHT22;50101;49.438;11.098;2023-03-31T04:35:28;19.20;53.80
38237;DHT22;50101;49.438;11.098;2023-03-31T04:38:22;19.20;54.50
38237;DHT22;50101;49.438;11.098;2023-03-31T04:40:50;19.10;54.50
38237;DHT22;50101;49.438;11.098;2023-03-31T04:43:18;19.20;54.70
38237;DHT22;50101;49.438;11.098;2023-03-31T04:45:45;19.20;54.50
38237;DHT22;50101;49.438;11.098;2023-03-31T04:48:12;19.30;54.40
38237;DHT22;50101;49.438;11.098;2023-03-31T04:50:39;19.30;54.30
38237;DHT22;50101;49.438;11.098;2023-03-31T04:53:06;19.30;54.30
38237;DHT22;50101;49.438;11.098;2023-03-31T04:55:33;19.30;54.30
38237;DHT22;50101;49.438;11.098;2023-03-31T04:58:00;19.20;54.50
38237;DHT22;50101;49.438;11.098;2023-03-31T05:00:27;19.30;54.60
38237;DHT22;50101;49.438;11.098;2023-03-31T05:02:54;19.10;54.60
38237;DHT22;50101;49.438;11.098;2023-03-31T05:05:22;19.10;55.10
38237;DHT22;50101;49.438;11.098;2023-03-31T05:07:49;19.00;55.30
38237;DHT22;50101;49.438;11.098;2023-03-31T05:10:15;19.00;55.30
38237;DHT22;50101;49.438;11.098;2023-03-31T05:12:42;19.00;55.30
38237;DHT22;50101;49.438;11.098;2023-03-31T05:15:09;19.00;55.30
38237;DHT22;50101;49.438;11.098;2023-03-31T05:17:36;19.00;55.30
38237;DHT22;50101;49.438;11.098;2023-03-31T05:20:03;19.00;55.30
38237;DHT22;50101;49.438;11.098;2023-03-31T05:22:36;19.00;55.10
38237;DHT22;50101;49.438;11.098;2023-03-31T05:25:05;19.00;55.20
38237;DHT22;50101;49.438;11.098;2023-03-31T05:27:33;19.00;54.70
38237;DHT22;50101;49.438;11.098;2023-03-31T05:30:02;19.00;55.40
38237;DHT22;50101;49.438;11.098;2023-03-31T05:32:29;19.00;55.40
38237;DHT22;50101;49.438;11.098;2023-03-31T05:34:56;19.00;55.40
38237;DHT22;50101;49.438;11.098;2023-03-31T05:37:24;19.00;54.90
38237;DHT22;50101;49.438;11.098;2023-03-31T05:39:51;19.00;55.30
38237;DHT22;50101;49.438;11.098;2023-03-31T05:42:19;19.00;55.30
38237;DHT22;50101;49.438;11.098;2023-03-31T05:44:45;19.10;55.40
38237;DHT22;50101;49.438;11.098;2023-03-31T05:47:12;19.00;55.30
38237;DHT22;50101;49.438;11.098;2023-03-31T05:49:39;19.00;55.30
38237;DHT22;50101;49.438;11.098;2023-03-31T05:52:06;19.00;55.20
38237;DHT22;50101;49.438;11.098;2023-03-31T05:54:33;19.00;55.40
38237;DHT22;50101;49.438;11.098;2023-03-31T05:57:00;19.00;55.40
38237;DHT22;50101;49.438;11.098;2023-03-31T05:59:27;19.10;55.50
38237;DHT22;50101;49.438;11.098;2023-03-31T06:01:54;19.10;55.60
38237;DHT22;50101;49.438;11.098;2023-03-31T06:04:21;19.10;55.50
38237;DHT22;50101;49.438;11.098;2023-03-31T06:06:47;19.10;55.00
38237;DHT22;50101;49.438;11.098;2023-03-31T06:09:16;19.10;55.60
38237;DHT22;50101;49.438;11.098;2023-03-31T06:11:43;19.10;55.50
38237;DHT22;50101;49.438;11.098;2023-03-31T06:14:10;19.10;55.50
38237;DHT22;50101;49.438;11.098;2023-03-31T06:16:37;19.10;55.40
38237;DHT22;50101;49.438;11.098;2023-03-31T06:19:03;19.10;55.50
38237;DHT22;50101;49.438;11.098;2023-03-31T06:21:30;19.10;55.50
38237;DHT22;50101;49.438;11.098;2023-03-31T06:23:57;19.10;55.40
38237;DHT22;50101;49.438;11.098;2023-03-31T06:26:26;19.10;55.40
38237;DHT22;50101;49.438;11.098;2023-03-31T06:28:53;19.10;55.30
38237;DHT22;50101;49.438;11.098;2023-03-31T06:31:22;19.10;55.30
38237;DHT22;50101;49.438;11.098;2023-03-31T06:33:49;19.10;55.90
38237;DHT22;50101;49.438;11.098;2023-03-31T06:36:18;19.20;55.40
38237;DHT22;50101;49.438;11.098;2023-03-31T06:38:45;19.20;55.40
38237;DHT22;50101;49.438;11.098;2023-03-31T06:41:13;19.20;55.50
38237;DHT22;50101;49.438;11.098;2023-03-31T06:43:40;19.20;55.40
38237;DHT22;50101;49.438;11.098;2023-03-31T06:46:08;19.30;55.50
38237;DHT22;50101;49.438;11.098;2023-03-31T06:48:35;19.30;55.50
38237;DHT22;50101;49.438;11.098;2023-03-31T06:51:05;19.30;55.30
38237;DHT22;50101;49.438;11.098;2023-03-31T06:53:32;19.30;55.30
38237;DHT22;50101;49.438;11.098;2023-03-31T06:55:59;19.30;54.90
38237;DHT22;50101;49.438;11.098;2023-03-31T06:58:26;19.30;55.40
38237;DHT22;50101;49.438;11.098;2023-03-31T07:00:56;19.30;55.40
38237;DHT22;50101;49.438;11.098;2023-03-31T07:03:23;19.20;55.30
38237;DHT22;50101;49.438;11.098;2023-03-31T07:05:52;19.30;55.40
38237;DHT22;50101;49.438;11.098;2023-03-31T07:08:20;19.30;55.30
38237;DHT22;50101;49.438;11.098;2023-03-31T07:10:48;19.40;55.40
38237;DHT22;50101;49.438;11.098;2023-03-31T07:13:16;19.30;55.30
38237;DHT22;50101;49.438;11.098;2023-03-31T07:15:46;19.30;55.30
38237;DHT22;50101;49.438;11.098;2023-03-31T07:18:14;19.30;55.20
38237;DHT22;50101;49.438;11.098;2023-03-31T07:20:42;19.30;55.20
38237;DHT22;50101;49.438;11.098;2023-03-31T07:23:09;19.30;55.10
38237;DHT22;50101;49.438;11.098;2023-03-31T07:25:36;19.40;55.20
38237;DHT22;50101;49.438;11.098;2023-03-31T07:28:03;19.40;55.10
38237;DHT22;50101;49.438;11.098;2023-03-31T07:30:31;19.30;55.00
38237;DHT22;50101;49.438;11.098;2023-03-31T07:32:58;19.30;54.90
38237;DHT22;50101;49.438;11.098;2023-03-31T07:35:25;19.30;54.40
38237;DHT22;50101;49.438;11.098;2023-03-31T07:37:52;19.30;54.90
38237;DHT22;50101;49.438;11.098;2023-03-31T07:40:25;19.40;54.90
38237;DHT22;50101;49.438;11.098;2023-03-31T07:42:52;19.40;54.90
38237;DHT22;50101;49.438;11.098;2023-03-31T07:45:21;19.40;54.90
38237;DHT22;50101;49.438;11.098;2023-03-31T07:47:48;19.40;54.90
38237;DHT22;50101;49.438;11.098;2023-03-31T07:50:15;19.40;54.90
38237;DHT22;50101;49.438;11.098;2023-03-31T07:52:43;19.40;54.90
38237;DHT22;50101;49.438;11.098;2023-03-31T07:55:13;19.40;54.40
38237;DHT22;50101;49.438;11.098;2023-03-31T07:57:40;19.40;54.90
38237;DHT22;50101;49.438;11.098;2023-03-31T08:00:08;19.40;54.90
38237;DHT22;50101;49.438;11.098;2023-03-31T08:02:38;19.40;54.90
38237;DHT22;50101;49.438;11.098;2023-03-31T08:05:05;19.40;54.90
38237;DHT22;50101;49.438;11.098;2023-03-31T08:07:37;19.40;54.90
38237;DHT22;50101;49.438;11.098;2023-03-31T08:10:08;19.40;54.90
38237;DHT22;50101;49.438;11.098;2023-03-31T08:12:36;19.40;54.90
38237;DHT22;50101;49.438;11.098;2023-03-31T08:15:03;19.40;54.90
38237;DHT22;50101;49.438;11.098;2023-03-31T08:17:30;19.40;54.90
38237;DHT22;50101;49.438;11.098;2023-03-31T08:19:57;19.40;54.90
38237;DHT22;50101;49.438;11.098;2023-03-31T08:22:29;19.40;54.90
38237;DHT22;50101;49.438;11.098;2023-03-31T08:24:56;19.40;54.90
38237;DHT22;50101;49.438;11.098;2023-03-31T08:27:22;19.40;54.90
38237;DHT22;50101;49.438;11.098;2023-03-31T08:29:49;19.40;54.80
38237;DHT22;50101;49.438;11.098;2023-03-31T08:32:16;19.40;54.80
38237;DHT22;50101;49.438;11.098;2023-03-31T08:34:42;19.40;54.90
38237;DHT22;50101;49.438;11.098;2023-03-31T08:37:10;19.40;54.90
38237;DHT22;50101;49.438;11.098;2023-03-31T08:39:37;19.40;54.80
38237;DHT22;50101;49.438;11.098;2023-03-31T08:42:14;19.40;54.80
38237;DHT22;50101;49.438;11.098;2023-03-31T08:44:47;19.40;54.80
38237;DHT22;50101;49.438;11.098;2023-03-31T08:47:19;19.30;54.70
38237;DHT22;50101;49.438;11.098;2023-03-31T08:49:55;19.40;54.80
38237;DHT22;50101;49.438;11.098;2023-03-31T08:52:28;19.40;54.80
38237;DHT22;50101;49.438;11.098;2023-03-31T08:54:58;19.40;54.80
38237;DHT22;50101;49.438;11.098;2023-03-31T08:57:39;19.40;54.70
38237;DHT22;50101;49.438;11.098;2023-03-31T09:00:15;19.40;54.70
38237;DHT22;50101;49.438;11.098;2023-03-31T09:02:51;19.40;54.70
38237;DHT22;50101;49.438;11.098;2023-03-31T09:08:10;19.40;54.60
38237;DHT22;50101;49.438;11.098;2023-03-31T09:13:52;19.40;54.50
38237;DHT22;50101;49.438;11.098;2023-03-31T09:19:20;19.40;54.60
38237;DHT22;50101;49.438;11.098;2023-03-31T09:21:52;19.40;54.60
38237;DHT22;50101;49.438;11.098;2023-03-31T09:24:30;19.40;54.60
38237;DHT22;50101;49.438;11.098;2023-03-31T09:27:04;19.40;54.60
38237;DHT22;50101;49.438;11.098;2023-03-31T09:29:48;19.40;54.60
38237;DHT22;50101;49.438;11.098;2023-03-31T09:32:22;19.40;54.60
38237;DHT22;50101;49.438;11.098;2023-03-31T09:34:56;19.40;54.60
38237;DHT22;50101;49.438;11.098;2023-03-31T09:37:27;19.40;54.60
38237;DHT22;50101;49.438;11.098;2023-03-31T09:40:01;19.40;54.50
38237;DHT22;50101;49.438;11.098;2023-03-31T09:42:34;19.40;54.50
38237;DHT22;50101;49.438;11.098;2023-03-31T09:45:01;19.40;54.50
38237;DHT22;50101;49.438;11.098;2023-03-31T09:47:34;19.40;54.50
38237;DHT22;50101;49.438;11.098;2023-03-31T09:50:06;19.50;54.50
38237;DHT22;50101;49.438;11.098;2023-03-31T09:52:49;19.50;54.50
38237;DHT22;50101;49.438;11.098;2023-03-31T09:55:28;19.50;55.10
38237;DHT22;50101;49.438;11.098;2023-03-31T09:58:06;19.50;54.50
38237;DHT22;50101;49.438;11.098;2023-03-31T10:00:34;19.50;54.40
38237;DHT22;50101;49.438;11.098;2023-03-31T10:03:03;19.50;54.40
38237;DHT22;50101;49.438;11.098;2023-03-31T10:05:56;19.50;54.40
38237;DHT22;50101;49.438;11.098;2023-03-31T10:08:40;19.50;54.40
38237;DHT22;50101;49.438;11.098;2023-03-31T10:11:09;19.50;54.30
38237;DHT22;50101;49.438;11.098;2023-03-31T10:16:13;19.50;54.40
38237;DHT22;50101;49.438;11.098;2023-03-31T10:18:42;19.50;54.30
38237;DHT22;50101;49.438;11.098;2023-03-31T10:21:22;19.50;54.30
38237;DHT22;50101;49.438;11.098;2023-03-31T10:23:49;19.50;54.30
38237;DHT22;50101;49.438;11.098;2023-03-31T10:26:22;19.60;54.40
38237;DHT22;50101;49.438;11.098;2023-03-31T10:28:52;19.60;54.40
38237;DHT22;50101;49.438;11.098;2023-03-31T10:31:26;20.10;54.80
38237;DHT22;50101;49.438;11.098;2023-03-31T10:33:54;19.60;54.40
38237;DHT22;50101;49.438;11.098;2023-03-31T10:36:24;19.60;54.40
38237;DHT22;50101;49.438;11.098;2023-03-31T10:38:52;19.50;54.30
38237;DHT22;50101;49.438;11.098;2023-03-31T10:41:29;19.50;54.40
38237;DHT22;50101;49.438;11.098;2023-03-31T10:43:58;19.50;54.40
38237;DHT22;50101;49.438;11.098;2023-03-31T10:51:55;19.50;54.40
38237;DHT22;50101;49.438;11.098;2023-03-31T10:54:23;19.60;54.50
38237;DHT22;50101;49.438;11.098;2023-03-31T10:56:51;19.50;54.40
38237;DHT22;50101;49.438;11.098;2023-03-31T10:59:45;19.60;55.00
38237;DHT22;50101;49.438;11.098;2023-03-31T11:08:17;19.50;54.40
38237;DHT22;50101;49.438;11.098;2023-03-31T11:14:01;19.50;54.40
38237;DHT22;50101;49.438;11.098;2023-03-31T11:19:52;19.60;54.60
38237;DHT22;50101;49.438;11.098;2023-03-31T11:22:39;20.50;55.40
38237;DHT22;50101;49.438;11.098;2023-03-31T11:30:54;19.80;54.80
38237;DHT22;50101;49.438;11.098;2023-03-31T11:36:12;19.70;55.00
38237;DHT22;50101;49.438;11.098;2023-03-31T11:39:03;19.80;55.00
38237;DHT22;50101;49.438;11.098;2023-03-31T11:41:46;19.80;55.00
38237;DHT22;50101;49.438;11.098;2023-03-31T11:44:15;19.70;55.10
38237;DHT22;50101;49.438;11.098;2023-03-31T11:46:59;19.80;55.20
38237;DHT22;50101;49.438;11.098;2023-03-31T11:49:33;20.00;55.10
38237;DHT22;50101;49.438;11.098;2023-03-31T11:52:15;19.90;55.50
38237;DHT22;50101;49.438;11.098;2023-03-31T11:54:53;19.90;55.00
38237;DHT22;50101;49.438;11.098;2023-03-31T11:57:26;19.90;55.10
38237;DHT22;50101;49.438;11.098;2023-03-31T12:00:03;19.80;55.20
38237;DHT22;50101;49.438;11.098;2023-03-31T12:02:57;19.80;55.20
38237;DHT22;50101;49.438;11.098;2023-03-31T12:05:26;19.80;55.20
38237;DHT22;50101;49.438;11.098;2023-03-31T12:08:08;19.90;55.30
38237;DHT22;50101;49.438;11.098;2023-03-31T12:10:43;19.90;55.30
38237;DHT22;50101;49.438;11.098;2023-03-31T12:16:10;19.90;55.30
38237;DHT22;50101;49.438;11.098;2023-03-31T12:21:21;19.90;55.30
38237;DHT22;50101;49.438;11.098;2023-03-31T12:23:49;19.90;55.40
38237;DHT22;50101;49.438;11.098;2023-03-31T12:26:33;19.90;55.30
38237;DHT22;50101;49.438;11.098;2023-03-31T12:29:28;19.90;55.50
38237;DHT22;50101;49.438;11.098;2023-03-31T12:31:57;19.90;55.40
38237;DHT22;50101;49.438;11.098;2023-03-31T12:34:26;19.90;55.60
38237;DHT22;50101;49.438;11.098;2023-03-31T12:37:28;19.90;55.60
38237;DHT22;50101;49.438;11.098;2023-03-31T12:45:29;19.90;55.70
38237;DHT22;50101;49.438;11.098;2023-03-31T12:48:27;19.90;55.60
38237;DHT22;50101;49.438;11.098;2023-03-31T12:51:35;19.90;55.60
38237;DHT22;50101;49.438;11.098;2023-03-31T12:54:35;19.90;55.70
38237;DHT22;50101;49.438;11.098;2023-03-31T12:59:39;19.90;55.80
38237;DHT22;50101;49.438;11.098;2023-03-31T13:04:43;19.90;55.80
38237;DHT22;50101;49.438;11.098;2023-03-31T13:07:36;19.90;55.40
38237;DHT22;50101;49.438;11.098;2023-03-31T13:12:40;19.90;55.80
38237;DHT22;50101;49.438;11.098;2023-03-31T13:15:12;20.00;55.10
38237;DHT22;50101;49.438;11.098;2023-03-31T13:17:40;20.00;55.60
38237;DHT22;50101;49.438;11.098;2023-03-31T13:23:19;20.00;55.40
38237;DHT22;50101;49.438;11.098;2023-03-31T13:25:50;20.00;55.50
38237;DHT22;50101;49.438;11.098;2023-03-31T13:31:08;20.00;55.80
38237;DHT22;50101;49.438;11.098;2023-03-31T13:33:55;19.90;55.70
38237;DHT22;50101;49.438;11.098;2023-03-31T13:39:42;19.90;55.90
38237;DHT22;50101;49.438;11.098;2023-03-31T13:48:19;20.00;55.40
38237;DHT22;50101;49.438;11.098;2023-03-31T13:56:54;20.00;55.40
38237;DHT22;50101;49.438;11.098;2023-03-31T13:59:41;20.00;55.50
38237;DHT22;50101;49.438;11.098;2023-03-31T14:05:32;20.00;55.40
38237;DHT22;50101;49.438;11.098;2023-03-31T14:08:06;20.00;55.40
38237;DHT22;50101;49.438;11.098;2023-03-31T14:10:39;20.00;55.40
38237;DHT22;50101;49.438;11.098;2023-03-31T14:13:17;20.00;55.40
38237;DHT22;50101;49.438;11.098;2023-03-31T14:15:53;19.90;55.20
38237;DHT22;50101;49.438;11.098;2023-03-31T14:18:30;20.00;55.50
38237;DHT22;50101;49.438;11.098;2023-03-31T14:26:53;20.00;55.40
38237;DHT22;50101;49.438;11.098;2023-03-31T14:35:19;20.10;55.80
38237;DHT22;50101;49.438;11.098;2023-03-31T14:37:49;20.20;56.10
38237;DHT22;50101;49.438;11.098;2023-03-31T14:40:17;20.20;55.60
38237;DHT22;50101;49.438;11.098;2023-03-31T14:42:44;20.10;55.90
38237;DHT22;50101;49.438;11.098;2023-03-31T14:45:24;20.10;55.90
38237;DHT22;50101;49.438;11.098;2023-03-31T14:50:44;20.10;56.00
38237;DHT22;50101;49.438;11.098;2023-03-31T14:53:22;20.10;55.70
38237;DHT22;50101;49.438;11.098;2023-03-31T14:55:50;20.20;55.80
38237;DHT22;50101;49.438;11.098;2023-03-31T14:58:33;20.10;55.60
38237;DHT22;50101;49.438;11.098;2023-03-31T15:01:02;20.10;55.80
38237;DHT22;50101;49.438;11.098;2023-03-31T15:03:32;20.10;56.30
38237;DHT22;50101;49.438;11.098;2023-03-31T15:06:00;20.10;55.80
38237;DHT22;50101;49.438;11.098;2023-03-31T15:08:28;20.20;55.60
38237;DHT22;50101;49.438;11.098;2023-03-31T15:10:59;20.10;55.70
38237;DHT22;50101;49.438;11.098;2023-03-31T15:13:44;20.20;55.90
38237;DHT22;50101;49.438;11.098;2023-03-31T15:16:37;20.20;55.60
38237;DHT22;50101;49.438;11.098;2023-03-31T15:19:20;20.10;55.80
38237;DHT22;50101;49.438;11.098;2023-03-31T15:22:00;20.10;55.70
38237;DHT22;50101;49.438;11.098;2023-03-31T15:24:28;20.10;55.90
38237;DHT22;50101;49.438;11.098;2023-03-31T15:27:06;20.00;56.00
38237;DHT22;50101;49.438;11.098;2023-03-31T15:29:49;20.10;56.10
38237;DHT22;50101;49.438;11.098;2023-03-31T15:32:25;20.10;56.10
38237;DHT22;50101;49.438;11.098;2023-03-31T15:34:53;20.10;55.90
38237;DHT22;50101;49.438;11.098;2023-03-31T15:37:24;20.00;55.80
38237;DHT22;50101;49.438;11.098;2023-03-31T15:39:57;20.00;55.90
38237;DHT22;50101;49.438;11.098;2023-03-31T15:42:26;20.00;55.90
38237;DHT22;50101;49.438;11.098;2023-03-31T15:44:56;20.00;56.00
38237;DHT22;50101;49.438;11.098;2023-03-31T15:47:27;20.00;55.90
38237;DHT22;50101;49.438;11.098;2023-03-31T15:50:09;20.00;56.10
38237;DHT22;50101;49.438;11.098;2023-03-31T15:52:46;20.00;56.10
38237;DHT22;50101;49.438;11.098;2023-03-31T15:55:23;20.00;56.00
38237;DHT22;50101;49.438;11.098;2023-03-31T15:57:51;20.00;55.40
38237;DHT22;50101;49.438;11.098;2023-03-31T16:03:01;20.00;55.90
38237;DHT22;50101;49.438;11.098;2023-03-31T16:05:52;20.00;55.70
38237;DHT22;50101;49.438;11.098;2023-03-31T16:08:40;20.00;55.60
38237;DHT22;50101;49.438;11.098;2023-03-31T16:11:55;20.10;55.60
38237;DHT22;50101;49.438;11.098;2023-03-31T16:14:36;20.10;55.60
38237;DHT22;50101;49.438;11.098;2023-03-31T16:17:08;20.10;55.60
38237;DHT22;50101;49.438;11.098;2023-03-31T16:19:47;20.10;55.50
38237;DHT22;50101;49.438;11.098;2023-03-31T16:22:20;20.10;55.50
38237;DHT22;50101;49.438;11.098;2023-03-31T16:24:50;20.10;55.20
38237;DHT22;50101;49.438;11.098;2023-03-31T16:27:17;20.10;55.70
38237;DHT22;50101;49.438;11.098;2023-03-31T16:29:44;20.10;55.80
38237;DHT22;50101;49.438;11.098;2023-03-31T16:32:13;20.00;55.90
38237;DHT22;50101;49.438;11.098;2023-03-31T16:34:58;20.10;55.80
38237;DHT22;50101;49.438;11.098;2023-03-31T16:37:26;20.00;55.50
38237;DHT22;50101;49.438;11.098;2023-03-31T16:39:53;20.00;55.70
38237;DHT22;50101;49.438;11.098;2023-03-31T16:42:20;20.00;55.70
38237;DHT22;50101;49.438;11.098;2023-03-31T16:44:46;20.00;55.70
38237;DHT22;50101;49.438;11.098;2023-03-31T16:47:30;19.90;55.60
38237;DHT22;50101;49.438;11.098;2023-03-31T16:50:02;19.90;55.60
38237;DHT22;50101;49.438;11.098;2023-03-31T16:52:32;20.00;55.70
38237;DHT22;50101;49.438;11.098;2023-03-31T16:54:59;20.00;55.60
38237;DHT22;50101;49.438;11.098;2023-03-31T16:57:26;20.00;55.50
38237;DHT22;50101;49.438;11.098;2023-03-31T16:59:53;20.00;55.40
38237;DHT22;50101;49.438;11.098;2023-03-31T17:02:23;20.00;55.40
38237;DHT22;50101;49.438;11.098;2023-03-31T17:04:50;20.00;55.40
38237;DHT22;50101;49.438;11.098;2023-03-31T17:07:22;20.00;55.40
38237;DHT22;50101;49.438;11.098;2023-03-31T17:09:48;20.00;56.20
38237;DHT22;50101;49.438;11.098;2023-03-31T17:12:15;20.00;55.70
38237;DHT22;50101;49.438;11.098;2023-03-31T17:14:42;20.00;55.80
38237;DHT22;50101;49.438;11.098;2023-03-31T17:17:08;20.00;55.90
38237;DHT22;50101;49.438;11.098;2023-03-31T17:19:35;20.00;55.80
38237;DHT22;50101;49.438;11.098;2023-03-31T17:22:02;20.00;55.90
38237;DHT22;50101;49.438;11.098;2023-03-31T17:24:29;20.00;56.10
38237;DHT22;50101;49.438;11.098;2023-03-31T17:26:55;19.90;56.10
38237;DHT22;50101;49.438;11.098;2023-03-31T17:29:23;20.00;55.90
38237;DHT22;50101;49.438;11.098;2023-03-31T17:31:50;20.00;55.90
38237;DHT22;50101;49.438;11.098;2023-03-31T17:34:17;20.00;55.90
38237;DHT22;50101;49.438;11.098;2023-03-31T17:36:43;19.90;55.90
38237;DHT22;50101;49.438;11.098;2023-03-31T17:39:10;19.90;55.90
38237;DHT22;50101;49.438;11.098;2023-03-31T17:41:37;19.90;56.00
38237;DHT22;50101;49.438;11.098;2023-03-31T17:44:04;19.90;55.90
38237;DHT22;50101;49.438;11.098;2023-03-31T17:46:33;19.90;55.90
38237;DHT22;50101;49.438;11.098;2023-03-31T17:49:00;19.90;55.80
38237;DHT22;50101;49.438;11.098;2023-03-31T17:51:27;19.90;55.80
38237;DHT22;50101;49.438;11.098;2023-03-31T17:53:54;19.90;56.40
38237;DHT22;50101;49.438;11.098;2023-03-31T17:56:21;19.90;55.80